createdAt,value
2022-09-26T00:02:12.490Z,95650.75
2022-09-26T00:04:40.430Z,95508.84
2022-09-26T00:07:07.254Z,95480.22
2022-09-26T00:09:34.449Z,95505.16
2022-09-26T00:12:01.569Z,95411.31
2022-09-26T00:14:29.625Z,95619.41
2022-09-26T00:16:57.303Z,95447.97
2022-09-26T00:19:24.275Z,95501.84
2022-09-26T00:21:51.091Z,95468.97
2022-09-26T00:24:19.605Z,95625.91
2022-09-26T00:26:47.549Z,95613.72
2022-09-26T00:29:14.725Z,95597.75
2022-09-26T00:31:45.511Z,95505.19
2022-09-26T00:34:17.582Z,95612.91
2022-09-26T00:36:44.611Z,95536.53
2022-09-26T00:39:14.395Z,95435.56
2022-09-26T00:41:44.352Z,95438.16
2022-09-26T00:44:44.576Z,95605.47
2022-09-26T00:47:36.601Z,95616.00
2022-09-26T00:50:15.849Z,95621.75
2022-09-26T00:53:11.853Z,95595.16
2022-09-26T00:55:47.272Z,95476.09
2022-09-26T00:58:27.140Z,95404.94
2022-09-26T01:00:56.004Z,95650.91
2022-09-26T01:03:25.549Z,95468.63
2022-09-26T01:05:52.651Z,95610.19
2022-09-26T01:08:40.449Z,95620.56
2022-09-26T01:11:08.384Z,95462.31
2022-09-26T01:13:36.968Z,95506.63
2022-09-26T01:16:03.914Z,95489.78
2022-09-26T01:18:31.471Z,95629.16
2022-09-26T01:21:13.653Z,95622.09
2022-09-26T01:24:09.001Z,95540.81
2022-09-26T01:27:09.711Z,95590.88
2022-09-26T01:29:42.615Z,95596.06
2022-09-26T01:32:25.477Z,95594.81
2022-09-26T01:35:28.529Z,95601.13
2022-09-26T01:38:10.126Z,95594.75
2022-09-26T01:44:07.606Z,95595.38
2022-09-26T01:46:41.561Z,95404.50
2022-09-26T01:49:33.530Z,95584.72
2022-09-26T01:52:03.334Z,95508.00
2022-09-26T01:54:46.782Z,95485.72
2022-09-26T01:57:20.532Z,95461.13
2022-09-26T01:59:53.500Z,95468.47
2022-09-26T02:02:29.424Z,95412.31
2022-09-26T02:05:11.556Z,95540.00
2022-09-26T02:07:45.875Z,95450.13
2022-09-26T02:10:19.138Z,95371.94
2022-09-26T02:12:52.671Z,95558.78
2022-09-26T02:15:22.148Z,95557.31
2022-09-26T02:18:07.503Z,95462.63
2022-09-26T02:20:43.765Z,95111.81
2022-09-26T02:23:35.462Z,95298.19
2022-09-26T02:26:05.492Z,95570.84
2022-09-26T02:28:32.788Z,95557.06
2022-09-26T02:31:05.783Z,95549.69
2022-09-26T02:33:35.744Z,95389.91
2022-09-26T02:36:09.765Z,95488.09
2022-09-26T02:38:40.327Z,95508.22
2022-09-26T02:41:57.479Z,95546.41
2022-09-26T02:44:36.104Z,95545.41
2022-09-26T02:47:28.919Z,95543.75
2022-09-26T02:50:14.488Z,95539.34
2022-09-26T02:53:08.219Z,95568.56
2022-09-26T02:56:03.918Z,95534.78
2022-09-26T02:58:46.559Z,95548.25
2022-09-26T03:01:21.109Z,95535.22
2022-09-26T03:03:52.022Z,95418.81
2022-09-26T03:06:24.696Z,95529.00
2022-09-26T03:08:53.592Z,95408.16
2022-09-26T03:11:28.901Z,95354.66
2022-09-26T03:14:07.843Z,94994.28
2022-09-26T03:16:40.787Z,95325.25
2022-09-26T03:19:28.887Z,95417.84
2022-09-26T03:21:56.275Z,95569.16
2022-09-26T03:24:26.730Z,95424.00
2022-09-26T03:26:54.990Z,95236.22
2022-09-26T03:29:25.520Z,95260.22
2022-09-26T03:31:55.343Z,95297.69
2022-09-26T03:34:33.056Z,95402.28
2022-09-26T03:37:02.187Z,95196.22
2022-09-26T03:39:35.052Z,95417.00
2022-09-26T03:42:04.191Z,95346.38
2022-09-26T03:44:31.439Z,95136.69
2022-09-26T03:47:04.727Z,95114.84
2022-09-26T03:49:34.807Z,95343.06
2022-09-26T03:52:08.969Z,95265.69
2022-09-26T03:54:36.488Z,95072.38
2022-09-26T03:57:03.727Z,95187.41
2022-09-26T03:59:30.691Z,95195.94
2022-09-26T04:01:57.837Z,95377.66
2022-09-26T04:04:48.003Z,95388.97
2022-09-26T04:07:17.269Z,95057.03
2022-09-26T04:09:49.062Z,95428.06
2022-09-26T04:12:16.010Z,95401.69
2022-09-26T04:14:42.882Z,95439.09
2022-09-26T04:17:10.182Z,95342.56
2022-09-26T04:19:37.245Z,95438.72
2022-09-26T04:22:04.568Z,95421.66
2022-09-26T04:24:31.427Z,95526.31
2022-09-26T04:26:58.272Z,95554.22
2022-09-26T04:29:25.146Z,95372.09
2022-09-26T04:31:51.994Z,95440.16
2022-09-26T04:34:23.495Z,95513.03
2022-09-26T04:36:53.244Z,95432.06
2022-09-26T04:39:20.418Z,95434.66
2022-09-26T04:41:47.383Z,95357.94
2022-09-26T04:44:14.571Z,95399.25
2022-09-26T04:46:41.474Z,95504.63
2022-09-26T04:49:09.272Z,95518.09
2022-09-26T04:51:36.162Z,95505.00
2022-09-26T04:54:03.261Z,95369.34
2022-09-26T04:56:30.725Z,95472.66
2022-09-26T04:58:58.870Z,95412.00
2022-09-26T05:01:27.579Z,95426.94
2022-09-26T05:03:54.413Z,95507.69
2022-09-26T05:06:21.443Z,95465.34
2022-09-26T05:08:48.730Z,95367.28
2022-09-26T05:11:20.729Z,95505.28
2022-09-26T05:13:53.051Z,95509.50
2022-09-26T05:16:21.779Z,95399.59
2022-09-26T05:18:52.463Z,94989.97
2022-09-26T05:21:19.532Z,95135.56
2022-09-26T05:23:46.753Z,94902.44
2022-09-26T05:26:25.156Z,95492.41
2022-09-26T05:29:08.010Z,95474.91
2022-09-26T05:31:38.518Z,95507.25
2022-09-26T05:34:14.344Z,95505.38
2022-09-26T05:36:51.551Z,94966.16
2022-09-26T05:39:18.808Z,95289.44
2022-09-26T05:41:55.767Z,95256.00
2022-09-26T05:44:25.116Z,95368.03
2022-09-26T05:46:52.314Z,95173.69
2022-09-26T05:49:24.129Z,95379.78
2022-09-26T05:51:53.556Z,95229.34
2022-09-26T05:54:20.433Z,95246.78
2022-09-26T05:56:47.309Z,95500.06
2022-09-26T05:59:14.712Z,95304.53
2022-09-26T06:01:41.847Z,95506.19
2022-09-26T06:04:11.283Z,95185.97
2022-09-26T06:06:38.598Z,95084.88
2022-09-26T06:09:13.120Z,95528.44
2022-09-26T06:11:57.804Z,95205.19
2022-09-26T06:14:35.127Z,95487.94
2022-09-26T06:17:04.362Z,95491.28
2022-09-26T06:19:31.555Z,95508.75
2022-09-26T06:21:59.696Z,95415.34
2022-09-26T06:24:28.563Z,95251.66
2022-09-26T06:27:19.843Z,95428.91
2022-09-26T06:29:47.389Z,95039.91
2022-09-26T06:32:14.300Z,95365.44
2022-09-26T06:34:41.397Z,95310.22
2022-09-26T06:37:08.766Z,95343.53
2022-09-26T06:39:35.912Z,95262.59
2022-09-26T06:42:06.523Z,95401.00
2022-09-26T06:44:34.403Z,95083.03
2022-09-26T06:47:01.464Z,95378.16
2022-09-26T06:49:28.925Z,95136.34
2022-09-26T06:51:58.674Z,95339.06
2022-09-26T06:54:34.731Z,95123.72
2022-09-26T06:57:04.999Z,95327.00
2022-09-26T06:59:32.085Z,95266.44
2022-09-26T07:02:02.366Z,95402.75
2022-09-26T07:04:30.240Z,95328.63
2022-09-26T07:07:01.669Z,95221.25
2022-09-26T07:09:31.534Z,95426.28
2022-09-26T07:12:15.553Z,95238.88
2022-09-26T07:14:43.833Z,95282.81
2022-09-26T07:17:17.767Z,95321.75
2022-09-26T07:19:45.207Z,95225.25
2022-09-26T07:22:16.564Z,95256.06
2022-09-26T07:24:43.670Z,95359.19
2022-09-26T07:27:10.716Z,95389.94
2022-09-26T07:29:37.628Z,95372.38
2022-09-26T07:32:05.036Z,95482.66
2022-09-26T07:34:32.162Z,95491.44
2022-09-26T07:36:59.215Z,95315.72
2022-09-26T07:39:26.202Z,95405.63
2022-09-26T07:41:53.321Z,95386.13
2022-09-26T07:47:07.315Z,95452.84
2022-09-26T07:49:34.532Z,95278.88
2022-09-26T07:52:01.556Z,95328.06
2022-09-26T07:54:28.535Z,95476.22
2022-09-26T07:56:55.478Z,95413.41
2022-09-26T07:59:22.407Z,95069.72
2022-09-26T08:01:58.671Z,95245.94
2022-09-26T08:04:28.377Z,95100.81
2022-09-26T08:06:57.388Z,95471.88
2022-09-26T08:09:56.811Z,95410.06
2022-09-26T08:12:24.655Z,95424.41
2022-09-26T08:14:52.375Z,95421.06
2022-09-26T08:17:22.126Z,95421.50
2022-09-26T08:19:49.113Z,95265.91
2022-09-26T08:22:16.123Z,95392.19
2022-09-26T08:24:43.095Z,95313.50
2022-09-26T08:27:11.649Z,95398.00
2022-09-26T08:29:43.166Z,95256.44
2022-09-26T08:32:11.846Z,94960.94
2022-09-26T08:34:39.138Z,95425.19
2022-09-26T08:37:11.076Z,95009.31
2022-09-26T08:39:38.277Z,95211.91
2022-09-26T08:42:32.841Z,95403.25
2022-09-26T08:45:27.458Z,95380.72
2022-09-26T08:48:14.034Z,95371.44
2022-09-26T08:50:58.309Z,95233.75
2022-09-26T08:53:41.364Z,95219.56
2022-09-26T08:56:22.393Z,95197.88
2022-09-26T08:58:55.440Z,95146.50
2022-09-26T09:01:39.221Z,95403.97
2022-09-26T09:04:26.450Z,95079.06
2022-09-26T09:06:59.081Z,95370.25
2022-09-26T09:09:28.909Z,95226.66
2022-09-26T09:12:24.330Z,95152.00
2022-09-26T09:15:24.530Z,94916.38
2022-09-26T09:18:19.873Z,95292.81
2022-09-26T09:21:29.110Z,95314.47
2022-09-26T09:24:35.727Z,95330.34
2022-09-26T09:30:24.705Z,95318.00
2022-09-26T09:33:17.826Z,95115.78
2022-09-26T09:36:03.151Z,95217.72
2022-09-26T09:38:33.792Z,95229.25
2022-09-26T09:41:06.789Z,95298.72
2022-09-26T09:43:43.051Z,95294.81
2022-09-26T09:46:27.667Z,95220.56
2022-09-26T09:49:05.945Z,95252.44
2022-09-26T09:52:03.629Z,95310.94
2022-09-26T09:54:42.156Z,95312.28
2022-09-26T09:57:30.829Z,95307.00
2022-09-26T10:00:10.448Z,95302.66
2022-09-26T10:02:55.909Z,95186.03
2022-09-26T10:05:52.637Z,95053.84
2022-09-26T10:08:22.052Z,95232.31
2022-09-26T10:11:03.994Z,95292.97
2022-09-26T10:13:34.362Z,94915.84
2022-09-26T10:16:14.116Z,95279.34
2022-09-26T10:19:02.969Z,95272.94
2022-09-26T10:21:32.748Z,95254.81
2022-09-26T10:24:01.054Z,95147.19
2022-09-26T10:26:31.528Z,95083.53
2022-09-26T10:29:01.529Z,95087.69
2022-09-26T10:31:36.013Z,95270.00
2022-09-26T10:34:08.352Z,95277.34
2022-09-26T10:36:38.049Z,95270.50
2022-09-26T10:39:05.048Z,95155.53
2022-09-26T10:41:39.787Z,95264.78
2022-09-26T10:44:31.835Z,94967.97
2022-09-26T10:47:05.745Z,95252.78
2022-09-26T10:49:42.575Z,95195.06
2022-09-26T10:52:18.781Z,95143.75
2022-09-26T10:54:59.591Z,95144.06
2022-09-26T10:57:43.659Z,95203.47
2022-09-26T11:00:21.054Z,95226.41
2022-09-26T11:02:51.845Z,95249.34
2022-09-26T11:05:20.717Z,95051.56
2022-09-26T11:07:49.195Z,95220.38
2022-09-26T11:10:25.974Z,95137.06
2022-09-26T11:13:02.154Z,95221.44
2022-09-26T11:15:29.739Z,95087.03
2022-09-26T11:17:57.170Z,95101.09
2022-09-26T11:20:56.078Z,95190.50
2022-09-26T11:23:39.637Z,95210.25
2022-09-26T11:26:21.593Z,95193.78
2022-09-26T11:29:15.493Z,95196.06
2022-09-26T11:31:43.513Z,95069.25
2022-09-26T11:34:15.925Z,95143.03
2022-09-26T11:37:12.111Z,95197.72
2022-09-26T11:39:57.236Z,94930.13
2022-09-26T11:42:42.751Z,95175.41
2022-09-26T11:45:40.841Z,95173.88
2022-09-26T11:48:40.033Z,95059.47
2022-09-26T11:51:28.109Z,95009.81
2022-09-26T11:54:27.353Z,95158.56
2022-09-26T11:57:18.598Z,95146.59
2022-09-26T12:00:01.758Z,95071.59
2022-09-26T12:02:41.137Z,95037.47
2022-09-26T12:05:33.917Z,95149.09
2022-09-26T12:08:20.757Z,95176.69
2022-09-26T12:10:51.079Z,95131.19
2022-09-26T12:13:20.809Z,95147.63
2022-09-26T12:16:15.261Z,95051.06
2022-09-26T12:18:45.194Z,95140.88
2022-09-26T12:21:31.793Z,95140.69
2022-09-26T12:24:14.496Z,95133.94
2022-09-26T12:26:54.789Z,95026.50
2022-09-26T12:29:47.027Z,95122.78
2022-09-26T12:32:30.270Z,95124.78
2022-09-26T12:35:03.522Z,95122.75
2022-09-26T12:37:48.355Z,95125.56
2022-09-26T12:40:27.082Z,95122.69
2022-09-26T12:43:28.796Z,95002.53
2022-09-26T12:46:13.112Z,95009.41
2022-09-26T12:49:01.343Z,95093.25
2022-09-26T12:51:50.753Z,95087.69
2022-09-26T12:54:47.971Z,94967.94
2022-09-26T12:57:51.889Z,94986.75
2022-09-26T13:00:20.789Z,95091.16
2022-09-26T13:03:12.682Z,95069.09
2022-09-26T13:05:58.548Z,95069.31
2022-09-26T13:08:40.356Z,95076.66
2022-09-26T13:11:10.157Z,95071.34
2022-09-26T13:14:03.730Z,94990.75
2022-09-26T13:16:49.118Z,95071.34
2022-09-26T13:19:39.576Z,95066.25
2022-09-26T13:22:24.833Z,94922.50
2022-09-26T13:25:12.971Z,94958.00
2022-09-26T13:27:44.350Z,94833.19
2022-09-26T13:30:14.258Z,95046.25
2022-09-26T13:33:07.460Z,94909.72
2022-09-26T13:35:36.519Z,94950.50
2022-09-26T13:38:45.309Z,95048.00
2022-09-26T13:41:30.605Z,95036.97
2022-09-26T13:44:15.732Z,94905.09
2022-09-26T13:47:00.916Z,95023.47
2022-09-26T13:49:33.557Z,95022.56
2022-09-26T13:52:03.392Z,95033.16
2022-09-26T13:54:55.399Z,94902.50
2022-09-26T13:57:56.233Z,95026.28
2022-09-26T14:00:29.014Z,94912.84
2022-09-26T14:03:08.070Z,95020.50
2022-09-26T14:05:46.561Z,95021.78
2022-09-26T14:08:26.166Z,95022.03
2022-09-26T14:10:53.870Z,95017.41
2022-09-26T14:13:36.086Z,95017.69
2022-09-26T14:16:28.474Z,95019.38
2022-09-26T14:19:09.551Z,95019.97
2022-09-26T14:21:42.752Z,94937.88
2022-09-26T14:24:42.759Z,95017.53
2022-09-26T14:27:09.638Z,95017.81
2022-09-26T14:29:41.995Z,95017.91
2022-09-26T14:32:13.447Z,95025.47
2022-09-26T14:35:00.250Z,94890.78
2022-09-26T14:37:35.838Z,94702.09
2022-09-26T14:43:13.641Z,95021.28
2022-09-26T14:45:46.954Z,95015.41
2022-09-26T14:48:18.564Z,95012.81
2022-09-26T14:50:58.968Z,95009.19
2022-09-26T14:53:26.237Z,95012.28
2022-09-26T14:56:01.282Z,95020.69
2022-09-26T14:58:38.717Z,94810.72
2022-09-26T15:01:11.637Z,94938.69
2022-09-26T15:03:39.474Z,94941.47
2022-09-26T15:06:06.913Z,94911.69
2022-09-26T15:08:39.260Z,94920.25
2022-09-26T15:11:07.667Z,94909.06
2022-09-26T15:13:45.329Z,95010.75
2022-09-26T15:16:21.057Z,95006.63
2022-09-26T15:19:20.410Z,94993.53
2022-09-26T15:22:15.691Z,94927.09
2022-09-26T15:24:43.241Z,94974.91
2022-09-26T15:27:22.881Z,94989.81
2022-09-26T15:29:54.609Z,94938.28
2022-09-26T15:32:29.956Z,94897.66
2022-09-26T15:35:00.098Z,94875.81
2022-09-26T15:37:31.178Z,94988.41
2022-09-26T15:40:31.783Z,94559.81
2022-09-26T15:43:41.649Z,95071.16
2022-09-26T15:46:30.727Z,94999.34
2022-09-26T15:49:00.749Z,94891.16
2022-09-26T15:51:37.188Z,95003.03
2022-09-26T15:54:31.562Z,94834.75
2022-09-26T15:57:05.626Z,94891.59
2022-09-26T15:59:53.774Z,94562.28
2022-09-26T16:03:23.884Z,94996.59
2022-09-26T16:05:22.050Z,94638.97
2022-09-26T16:07:57.090Z,94856.00
2022-09-26T16:10:33.691Z,95075.09
2022-09-26T16:13:00.894Z,94948.38
2022-09-26T16:15:32.688Z,95007.56
2022-09-26T16:17:59.574Z,95020.38
2022-09-26T16:20:28.727Z,95005.16
2022-09-26T16:23:05.293Z,95001.72
2022-09-26T16:25:41.636Z,95007.44
2022-09-26T16:28:11.652Z,94997.00
2022-09-26T16:30:41.445Z,94983.84
2022-09-26T16:33:08.270Z,94993.28
2022-09-26T16:35:37.130Z,94995.59
2022-09-26T16:38:26.950Z,94983.50
2022-09-26T16:41:02.430Z,95005.81
2022-09-26T16:43:32.442Z,94982.78
2022-09-26T16:46:12.032Z,95019.47
2022-09-26T16:48:51.241Z,95008.34
2022-09-26T16:51:21.592Z,95004.59
2022-09-26T16:53:57.034Z,94570.34
2022-09-26T16:56:25.514Z,94724.91
2022-09-26T16:59:04.775Z,94856.84
2022-09-26T17:01:32.328Z,94940.09
2022-09-26T17:04:01.954Z,94725.38
2022-09-26T17:06:30.970Z,95060.38
2022-09-26T17:09:03.019Z,94592.25
2022-09-26T17:11:32.154Z,94617.91
2022-09-26T17:13:59.228Z,94835.28
2022-09-26T17:16:26.963Z,94767.28
2022-09-26T17:19:03.248Z,94860.72
2022-09-26T17:21:30.194Z,95016.75
2022-09-26T17:23:57.394Z,94878.81
2022-09-26T17:26:27.117Z,94924.28
2022-09-26T17:28:54.550Z,94771.97
2022-09-26T17:31:23.508Z,94749.31
2022-09-26T17:33:53.171Z,94772.53
2022-09-26T17:36:23.645Z,95009.09
2022-09-26T17:39:00.530Z,94749.16
2022-09-26T17:41:30.726Z,94917.06
2022-09-26T17:44:00.726Z,95022.19
2022-09-26T17:46:31.737Z,94642.88
2022-09-26T17:48:59.477Z,94582.06
2022-09-26T17:51:28.833Z,94805.78
2022-09-26T17:53:58.593Z,95048.66
2022-09-26T18:57:32.601Z,94999.09
2022-09-26T19:00:12.152Z,94728.84
2022-09-26T19:06:04.160Z,94888.19
2022-09-26T19:08:58.108Z,94849.00
2022-09-26T19:11:52.798Z,94758.56
2022-09-26T19:14:47.470Z,94732.00
2022-09-26T19:23:48.235Z,94564.16
2022-09-26T19:26:54.287Z,94630.44
2022-09-26T19:36:32.713Z,95000.69
2022-09-26T19:39:23.995Z,94760.19
2022-09-26T19:42:11.769Z,94750.50
2022-09-26T19:47:55.436Z,94822.56
2022-09-26T19:53:26.411Z,94997.47
2022-09-26T19:58:53.560Z,94631.41
2022-09-26T20:01:53.403Z,94755.84
2022-09-26T20:04:38.068Z,94999.41
2022-09-26T20:07:58.354Z,94698.94
2022-09-26T20:11:57.752Z,94644.50
2022-09-26T20:13:41.547Z,95000.91
2022-09-26T20:19:57.772Z,94968.13
2022-09-26T20:22:41.247Z,94545.19
2022-09-26T20:25:39.706Z,94501.97
2022-09-26T20:29:18.273Z,94945.34
2022-09-26T20:31:51.239Z,94584.19
2022-09-26T20:34:44.765Z,94482.78
2022-09-26T20:37:22.559Z,94697.97
2022-09-26T20:39:51.204Z,94722.09
2022-09-26T20:42:21.549Z,94893.28
2022-09-26T20:44:57.836Z,94698.06
2022-09-26T20:52:55.355Z,94926.22
2022-09-26T20:56:32.333Z,94809.00
2022-09-26T20:58:35.935Z,94678.34
2022-09-26T21:01:24.505Z,94493.13
2022-09-26T21:07:18.074Z,94898.59
2022-09-26T21:10:09.464Z,94628.91
2022-09-26T22:11:33.114Z,94336.28
2022-09-26T22:18:04.429Z,94351.53
2022-09-26T22:21:05.611Z,94661.19
2022-09-26T22:32:24.699Z,94839.00
2022-09-26T23:26:27.341Z,94346.06
